地図

経路データ

SID SEASON NUMBER BASIN SUBBASIN NAME ISO_TIME NATURE LAT LON WMO_WIND WMO_PRES WMO_AGENCY TRACK_TYPE DIST2LAND LANDFALL IFLAG USA_AGENCY USA_ATCF_ID USA_LAT USA_LON USA_RECORD USA_STATUS USA_WIND USA_PRES USA_SSHS USA_R34_NE USA_R34_SE USA_R34_SW USA_R34_NW USA_R50_NE USA_R50_SE USA_R50_SW USA_R50_NW USA_R64_NE USA_R64_SE USA_R64_SW USA_R64_NW USA_POCI USA_ROCI USA_RMW USA_EYE TOKYO_LAT TOKYO_LON TOKYO_GRADE TOKYO_WIND TOKYO_PRES TOKYO_R50_DIR TOKYO_R50_LONG TOKYO_R50_SHORT TOKYO_R30_DIR TOKYO_R30_LONG TOKYO_R30_SHORT TOKYO_LAND CMA_LAT CMA_LON CMA_CAT CMA_WIND CMA_PRES HKO_LAT HKO_LON HKO_CAT HKO_WIND HKO_PRES NEWDELHI_LAT NEWDELHI_LON NEWDELHI_GRADE NEWDELHI_WIND NEWDELHI_PRES NEWDELHI_CI NEWDELHI_DP NEWDELHI_POCI REUNION_LAT REUNION_LON REUNION_TYPE REUNION_WIND REUNION_PRES REUNION_TNUM REUNION_CI REUNION_RMW REUNION_R34_NE REUNION_R34_SE REUNION_R34_SW REUNION_R34_NW REUNION_R50_NE REUNION_R50_SE REUNION_R50_SW REUNION_R50_NW REUNION_R64_NE REUNION_R64_SE REUNION_R64_SW REUNION_R64_NW BOM_LAT BOM_LON BOM_TYPE BOM_WIND BOM_PRES BOM_TNUM BOM_CI BOM_RMW BOM_R34_NE BOM_R34_SE BOM_R34_SW BOM_R34_NW BOM_R50_NE BOM_R50_SE BOM_R50_SW BOM_R50_NW BOM_R64_NE BOM_R64_SE BOM_R64_SW BOM_R64_NW BOM_ROCI BOM_POCI BOM_EYE BOM_POS_METHOD BOM_PRES_METHOD NADI_LAT NADI_LON NADI_CAT NADI_WIND NADI_PRES WELLINGTON_LAT WELLINGTON_LON WELLINGTON_WIND WELLINGTON_PRES DS824_LAT DS824_LON DS824_STAGE DS824_WIND DS824_PRES TD9636_LAT TD9636_LON TD9636_STAGE TD9636_WIND TD9636_PRES TD9635_LAT TD9635_LON TD9635_WIND TD9635_PRES TD9635_ROCI NEUMANN_LAT NEUMANN_LON NEUMANN_CLASS NEUMANN_WIND NEUMANN_PRES MLC_LAT MLC_LON MLC_CLASS MLC_WIND MLC_PRES USA_GUST BOM_GUST BOM_GUST_PER REUNION_GUST REUNION_GUST_PER USA_SEAHGT USA_SEARAD_NE USA_SEARAD_SE USA_SEARAD_SW USA_SEARAD_NW STORM_SPEED STORM_DIR
1882267N30283 1882 33 NA NA NOT_NAMED 1882-09-24 00:00:00 TS 30.3000 -76.8000 50 hurdat_atl main 388 377 O_____________ hurdat_atl AL051882 30.3000 -76.8000 TS 50 0 5 17
1882267N30283 1882 33 NA NA NOT_NAMED 1882-09-24 03:00:00 TS 30.5450 -76.7100 main 377 360 P_____________ AL051882 30.5450 -76.7100 TS 50 0 5 19
1882267N30283 1882 33 NA NA NOT_NAMED 1882-09-24 06:00:00 TS 30.8000 -76.6000 50 hurdat_atl main 360 342 O_____________ hurdat_atl AL051882 30.8000 -76.6000 TS 50 0 6 23
1882267N30283 1882 33 NA NA NOT_NAMED 1882-09-24 09:00:00 TS 31.0650 -76.4576 main 342 330 P_____________ AL051882 31.0650 -76.4576 TS 50 0 6 27
1882267N30283 1882 33 NA NA NOT_NAMED 1882-09-24 12:00:00 TS 31.3000 -76.3000 50 hurdat_atl main 330 316 O_____________ hurdat_atl AL051882 31.3000 -76.3000 TS 50 0 5 33
1882267N30283 1882 33 NA NA NOT_NAMED 1882-09-24 15:00:00 TS 31.4650 -76.1573 main 316 311 P_____________ AL051882 31.4650 -76.1573 TS 50 0 4 40
1882267N30283 1882 33 NA NA NOT_NAMED 1882-09-24 18:00:00 TS 31.6000 -76.0000 50 hurdat_atl main 317 313 O_____________ hurdat_atl AL051882 31.6000 -76.0000 TS 50 0 4 48
1882267N30283 1882 33 NA NA NOT_NAMED 1882-09-24 21:00:00 TS 31.7501 -75.7925 main 311 309 P_____________ AL051882 31.7501 -75.7925 TS 55 0 5 49
1882267N30283 1882 33 NA NA NOT_NAMED 1882-09-25 00:00:00 TS 31.9000 -75.6000 60 hurdat_atl main 315 307 O_____________ hurdat_atl AL051882 31.9000 -75.6000 TS 60 0 4 39
1882267N30283 1882 33 NA NA NOT_NAMED 1882-09-25 03:00:00 TS 32.0499 -75.4998 main 314 296 P_____________ AL051882 32.0499 -75.4998 TS 60 0 3 29
1882267N30283 1882 33 NA NA NOT_NAMED 1882-09-25 06:00:00 TS 32.2000 -75.4000 60 hurdat_atl main 296 286 O_____________ hurdat_atl AL051882 32.2000 -75.4000 TS 60 0 4 36
1882267N30283 1882 33 NA NA NOT_NAMED 1882-09-25 09:00:00 TS 32.3348 -75.2521 main 289 277 P_____________ AL051882 32.3348 -75.2521 TS 65 1 5 48
1882267N30283 1882 33 NA NA NOT_NAMED 1882-09-25 12:00:00 TS 32.5000 -75.0000 70 hurdat_atl main 281 276 O_____________ hurdat_atl AL051882 32.5000 -75.0000 HU 70 1 7 56
1882267N30283 1882 33 NA NA NOT_NAMED 1882-09-25 15:00:00 TS 32.7202 -74.5800 main 283 280 P_____________ AL051882 32.7202 -74.5800 HU 70 1 9 57
1882267N30283 1882 33 NA NA NOT_NAMED 1882-09-25 18:00:00 TS 33.0000 -74.1000 70 hurdat_atl main 291 290 O_____________ hurdat_atl AL051882 33.0000 -74.1000 HU 70 1 10 49
1882267N30283 1882 33 NA NA NOT_NAMED 1882-09-25 21:00:00 TS 33.3496 -73.7074 main 298 291 P_____________ AL051882 33.3496 -73.7074 HU 70 1 10 44
1882267N30283 1882 33 NA NA NOT_NAMED 1882-09-26 00:00:00 TS 33.7000 -73.3000 70 hurdat_atl main 304 303 O_____________ hurdat_atl AL051882 33.7000 -73.3000 HU 70 1 10 50
1882267N30283 1882 33 NA NA NOT_NAMED 1882-09-26 03:00:00 TS 33.9647 -72.8369 main 317 317 P_____________ AL051882 33.9647 -72.8369 HU 70 1 10 59
1882267N30283 1882 33 NA NA NOT_NAMED 1882-09-26 06:00:00 TS 34.2000 -72.3000 70 hurdat_atl main 341 341 O_____________ hurdat_atl AL051882 34.2000 -72.3000 HU 70 1 11 64
1882267N30283 1882 33 NA NA NOT_NAMED 1882-09-26 09:00:00 TS 34.4272 -71.6866 main 378 378 P_____________ AL051882 34.4272 -71.6866 HU 70 1 12 65
1882267N30283 1882 33 NA NA NOT_NAMED 1882-09-26 12:00:00 TS 34.7000 -71.0000 70 hurdat_atl main 425 425 O_____________ hurdat_atl AL051882 34.7000 -71.0000 HU 70 1 13 61
1882267N30283 1882 33 NA NA NOT_NAMED 1882-09-26 15:00:00 TS 35.0692 -70.2943 main 476 476 P_____________ AL051882 35.0692 -70.2943 HU 70 1 15 57
1882267N30283 1882 33 NA NA NOT_NAMED 1882-09-26 18:00:00 TS 35.5000 -69.5000 70 hurdat_atl main 541 541 O_____________ hurdat_atl AL051882 35.5000 -69.5000 HU 70 1 16 58
1882267N30283 1882 33 NA NA NOT_NAMED 1882-09-26 21:00:00 TS 35.9496 -68.5946 main 620 620 P_____________ AL051882 35.9496 -68.5946 HU 70 1 18 60
1882267N30283 1882 33 NA NA NOT_NAMED 1882-09-27 00:00:00 TS 36.4000 -67.6000 70 hurdat_atl main 625 613 O_____________ hurdat_atl AL051882 36.4000 -67.6000 HU 70 1 18 62
1882267N30283 1882 33 NA NA NOT_NAMED 1882-09-27 03:00:00 TS 36.8068 -66.5712 main 618 612 P_____________ AL051882 36.8068 -66.5712 HU 70 1 19 65
1882267N30283 1882 33 NA NA NOT_NAMED 1882-09-27 06:00:00 TS 37.2000 -65.5000 70 hurdat_atl main 631 631 O_____________ hurdat_atl AL051882 37.2000 -65.5000 HU 70 1 19 65
1882267N30283 1882 33 NA NA NOT_NAMED 1882-09-27 09:00:00 TS 37.6051 -64.4584 main 654 632 P_____________ AL051882 37.6051 -64.4584 HU 70 1 19 65
1882267N30283 1882 33 NA NA NOT_NAMED 1882-09-27 12:00:00 TS 38.0000 -63.3000 70 hurdat_atl main 634 627 O_____________ hurdat_atl AL051882 38.0000 -63.3000 HU 70 1 21 69
1882267N30283 1882 33 NA NA NOT_NAMED 1882-09-27 15:00:00 TS 38.3710 -61.9392 main 634 634 P_____________ AL051882 38.3710 -61.9392 HU 70 1 24 73
1882267N30283 1882 33 NA NA NOT_NAMED 1882-09-27 18:00:00 TS 38.7000 -60.4000 70 hurdat_atl main 672 672 O_____________ hurdat_atl AL051882 38.7000 -60.4000 HU 70 1 26 76
1882267N30283 1882 33 NA NA NOT_NAMED 1882-09-27 21:00:00 TS 38.9947 -58.7229 main 717 716 P_____________ AL051882 38.9947 -58.7229 HU 70 1 27 79
1882267N30283 1882 33 NA NA NOT_NAMED 1882-09-28 00:00:00 TS 39.2000 -57.0000 70 hurdat_atl main 747 747 O_____________ hurdat_atl AL051882 39.2000 -57.0000 HU 70 1 26 84
1882267N30283 1882 33 NA NA NOT_NAMED 1882-09-28 03:00:00 TS 39.2708 -55.3524 main 805 805 P_____________ AL051882 39.2708 -55.3524 HU 70 1 25 88
1882267N30283 1882 33 NA NA NOT_NAMED 1882-09-28 06:00:00 TS 39.3000 -53.8000 70 hurdat_atl main 811 800 O_____________ hurdat_atl AL051882 39.3000 -53.8000 HU 70 1 23 87
1882267N30283 1882 33 NA NA NOT_NAMED 1882-09-28 09:00:00 TS 39.4041 -52.3859 main 803 797 P_____________ AL051882 39.4041 -52.3859 HU 70 1 22 85
1882267N30283 1882 33 NA NA NOT_NAMED 1882-09-28 12:00:00 TS 39.5000 -51.0000 70 hurdat_atl main 809 809 O_____________ hurdat_atl AL051882 39.5000 -51.0000 HU 70 1 22 87
1882267N30283 1882 33 NA NA NOT_NAMED 1882-09-28 15:00:00 TS 39.5275 -49.5290 main 844 844 P_____________ AL051882 39.5275 -49.5290 HU 70 1 23 90
1882267N30283 1882 33 NA NA NOT_NAMED 1882-09-28 18:00:00 TS 39.5000 -48.0000 70 hurdat_atl main 894 O_____________ hurdat_atl AL051882 39.5000 -48.0000 HU 70 1 24 91

IBTrACS Databaseについて

本データベースは、米国NOAAが公開する1842年以降の世界の熱帯低気圧のベストトラックデータアーカイブInternational Best Track Archive for Climate Stewardship (IBTrACS)を、ウェブで閲覧しやすい形式に変換したものです。

最終更新日:2021-12-08